createdAt,value
2022-10-10T00:00:35.309Z,8.80
2022-10-10T00:03:24.124Z,7.30
2022-10-10T00:06:13.370Z,7.20
2022-10-10T00:09:01.179Z,7.30
2022-10-10T00:11:48.844Z,7.20
2022-10-10T00:14:36.852Z,7.20
2022-10-10T00:17:25.015Z,7.30
2022-10-10T00:20:15.005Z,7.30
2022-10-10T00:23:03.407Z,7.30
2022-10-10T00:25:51.591Z,7.30
2022-10-10T00:28:39.763Z,7.40
2022-10-10T00:31:27.353Z,7.30
2022-10-10T00:34:15.275Z,7.40
2022-10-10T00:37:04.649Z,7.40
2022-10-10T00:39:52.906Z,7.40
2022-10-10T00:42:41.387Z,7.40
2022-10-10T00:45:31.347Z,7.40
2022-10-10T00:48:21.149Z,7.40
2022-10-10T00:51:10.398Z,7.40
2022-10-10T00:54:01.183Z,7.40
2022-10-10T00:56:50.323Z,7.40
2022-10-10T00:59:39.107Z,7.50
2022-10-10T01:02:27.109Z,7.40
2022-10-10T01:05:15.668Z,7.40
2022-10-10T01:08:03.658Z,7.40
2022-10-10T01:11:00.504Z,7.50
2022-10-10T01:13:53.381Z,7.50
2022-10-10T01:16:45.139Z,7.50
2022-10-10T01:19:40.786Z,7.60
2022-10-10T01:22:34.137Z,7.60
2022-10-10T01:25:26.235Z,7.60
2022-10-10T01:28:23.690Z,7.60
2022-10-10T01:31:13.765Z,7.60
2022-10-10T01:34:05.304Z,7.60
2022-10-10T01:36:57.490Z,7.60
2022-10-10T01:39:49.781Z,7.50
2022-10-10T01:42:39.924Z,7.60
2022-10-10T01:45:31.514Z,7.50
2022-10-10T01:48:20.649Z,7.50
2022-10-10T01:51:19.699Z,7.40
2022-10-10T01:54:12.054Z,7.40
2022-10-10T01:57:04.127Z,7.40
2022-10-10T02:00:02.649Z,7.40
2022-10-10T02:02:57.201Z,7.30
2022-10-10T02:05:47.877Z,7.40
2022-10-10T02:08:36.934Z,7.40
2022-10-10T02:11:25.053Z,7.40
2022-10-10T02:14:24.702Z,7.40
2022-10-10T02:17:14.245Z,7.40
2022-10-10T02:20:03.627Z,7.40
2022-10-10T02:22:53.272Z,7.40
2022-10-10T02:25:42.870Z,7.40
2022-10-10T02:28:33.146Z,7.40
2022-10-10T02:31:23.430Z,7.50
2022-10-10T02:34:13.130Z,7.50
2022-10-10T02:37:04.144Z,7.50
2022-10-10T02:39:55.071Z,7.50
2022-10-10T02:42:44.327Z,7.50
2022-10-10T02:45:33.310Z,7.50
2022-10-10T02:48:20.894Z,7.50
2022-10-10T02:51:09.488Z,7.50
2022-10-10T02:53:58.571Z,7.50
2022-10-10T02:56:46.167Z,7.50
2022-10-10T02:59:33.754Z,7.60
2022-10-10T03:02:21.524Z,7.60
2022-10-10T03:05:10.193Z,7.60
2022-10-10T03:07:57.930Z,7.60
2022-10-10T03:10:57.094Z,7.60
2022-10-10T03:13:45.036Z,7.70
2022-10-10T03:16:32.803Z,7.70
2022-10-10T03:19:20.679Z,7.60
2022-10-10T03:22:08.457Z,7.80
2022-10-10T03:24:56.633Z,7.70
2022-10-10T03:27:45.420Z,7.70
2022-10-10T03:30:32.992Z,7.70
2022-10-10T03:33:20.719Z,7.80
2022-10-10T03:36:08.440Z,7.80
2022-10-10T03:38:56.524Z,7.80
2022-10-10T03:41:44.382Z,7.90
2022-10-10T03:44:34.270Z,7.90
2022-10-10T03:47:22.226Z,8.00
2022-10-10T03:50:11.493Z,8.10
2022-10-10T03:52:59.892Z,8.00
2022-10-10T03:55:47.188Z,8.00
2022-10-10T03:58:36.421Z,8.10
2022-10-10T04:01:25.810Z,8.10
2022-10-10T04:04:14.199Z,8.10
2022-10-10T04:07:02.131Z,8.10
2022-10-10T04:09:50.532Z,8.10
2022-10-10T04:12:38.541Z,8.20
2022-10-10T04:15:26.654Z,8.20
2022-10-10T04:18:15.990Z,8.20
2022-10-10T04:21:04.204Z,8.20
2022-10-10T04:23:52.250Z,8.20
2022-10-10T04:26:40.488Z,8.20
2022-10-10T04:29:27.858Z,8.20
2022-10-10T04:32:15.694Z,8.20
2022-10-10T04:35:05.280Z,8.20
2022-10-10T04:37:53.615Z,8.20
2022-10-10T04:40:41.678Z,8.20
2022-10-10T04:43:29.483Z,8.20
2022-10-10T04:46:18.117Z,8.20
2022-10-10T04:49:05.613Z,8.10
2022-10-10T04:51:55.237Z,8.10
2022-10-10T04:54:43.251Z,8.10
2022-10-10T04:57:30.773Z,8.10
2022-10-10T05:00:18.608Z,8.00
2022-10-10T05:03:07.271Z,8.00
2022-10-10T05:05:54.568Z,8.00
2022-10-10T05:09:12.028Z,8.00
2022-10-10T05:12:01.331Z,8.00
2022-10-10T05:14:48.899Z,8.00
2022-10-10T05:17:36.132Z,8.00
2022-10-10T05:20:24.721Z,7.90
2022-10-10T05:23:12.451Z,7.90
2022-10-10T05:26:01.315Z,7.90
2022-10-10T05:28:48.888Z,7.90
2022-10-10T05:31:36.733Z,7.90
2022-10-10T05:34:25.152Z,7.90
2022-10-10T05:37:13.485Z,7.90
2022-10-10T05:40:01.424Z,7.80
2022-10-10T05:42:50.908Z,6.50
2022-10-10T05:45:38.897Z,7.80
2022-10-10T05:48:27.039Z,7.70
2022-10-10T05:51:14.533Z,7.70
2022-10-10T05:54:02.796Z,7.70
2022-10-10T05:56:50.778Z,7.70
2022-10-10T05:59:40.450Z,7.70
2022-10-10T06:02:28.578Z,7.80
2022-10-10T06:05:16.041Z,7.80
2022-10-10T06:08:10.619Z,7.70
2022-10-10T06:11:03.182Z,7.80
2022-10-10T06:13:54.323Z,7.80
2022-10-10T06:16:45.664Z,7.80
2022-10-10T06:19:36.315Z,7.90
2022-10-10T06:22:24.687Z,7.90
2022-10-10T06:25:35.497Z,8.10
2022-10-10T06:28:21.076Z,8.00
2022-10-10T06:31:10.517Z,8.00
2022-10-10T06:34:00.180Z,8.10
2022-10-10T06:36:47.698Z,8.10
2022-10-10T06:39:36.011Z,8.40
2022-10-10T06:42:23.782Z,8.20
2022-10-10T06:45:17.803Z,8.20
2022-10-10T06:48:06.009Z,8.90
2022-10-10T06:50:59.379Z,8.50
2022-10-10T06:53:47.772Z,8.50
2022-10-10T06:56:35.653Z,8.60
2022-10-10T06:59:23.091Z,8.80
2022-10-10T07:02:16.623Z,8.90
2022-10-10T07:05:04.973Z,8.90
2022-10-10T07:07:54.588Z,9.00
2022-10-10T07:10:42.230Z,8.90
2022-10-10T07:13:29.968Z,9.00
2022-10-10T07:16:17.349Z,9.10
2022-10-10T07:19:05.381Z,9.10
2022-10-10T07:25:25.715Z,9.40
2022-10-10T07:28:13.253Z,9.50
2022-10-10T07:31:01.671Z,9.90
2022-10-10T07:33:50.962Z,9.90
2022-10-10T07:36:38.942Z,10.10
2022-10-10T07:39:27.208Z,10.10
2022-10-10T07:42:16.185Z,10.20
2022-10-10T07:45:04.335Z,10.30
2022-10-10T07:47:53.661Z,10.40
2022-10-10T07:50:41.959Z,10.50
2022-10-10T07:53:29.241Z,10.50
2022-10-10T07:56:16.809Z,10.60
2022-10-10T07:59:06.571Z,10.60
2022-10-10T08:01:54.692Z,10.60
2022-10-10T08:04:43.310Z,10.60
2022-10-10T08:07:31.192Z,10.60
2022-10-10T08:10:18.893Z,10.60
2022-10-10T08:13:07.477Z,10.60
2022-10-10T08:15:57.175Z,10.60
2022-10-10T08:18:44.813Z,10.60
2022-10-10T08:21:32.920Z,10.50
2022-10-10T08:24:20.973Z,10.70
2022-10-10T08:27:08.267Z,10.80
2022-10-10T08:29:55.824Z,11.10
2022-10-10T08:32:45.114Z,11.10
2022-10-10T08:35:32.801Z,11.20
2022-10-10T08:38:21.642Z,11.40
2022-10-10T08:41:10.943Z,11.50
2022-10-10T08:44:01.271Z,11.60
2022-10-10T08:46:50.578Z,11.80
2022-10-10T08:49:42.234Z,11.90
2022-10-10T08:52:32.814Z,12.10
2022-10-10T08:55:23.292Z,12.20
2022-10-10T08:58:13.762Z,12.50
2022-10-10T09:01:04.078Z,12.80
2022-10-10T09:03:52.482Z,13.10
2022-10-10T09:06:47.355Z,13.60
2022-10-10T09:09:38.310Z,13.90
2022-10-10T09:12:29.693Z,14.20
2022-10-10T09:15:21.783Z,14.50
2022-10-10T09:18:15.344Z,14.90
2022-10-10T09:21:05.105Z,15.10
2022-10-10T09:23:56.320Z,15.20
2022-10-10T09:26:46.748Z,15.20
2022-10-10T09:29:35.596Z,15.50
2022-10-10T09:32:25.154Z,15.60
2022-10-10T09:35:17.876Z,15.70
2022-10-10T09:38:15.303Z,15.70
2022-10-10T09:41:07.372Z,15.70
2022-10-10T09:43:57.394Z,15.80
2022-10-10T09:46:45.575Z,15.80
2022-10-10T09:49:34.732Z,15.70
2022-10-10T09:52:25.798Z,15.70
2022-10-10T09:55:22.941Z,15.90
2022-10-10T09:58:15.703Z,15.40
2022-10-10T10:01:24.549Z,15.60
2022-10-10T10:04:27.768Z,15.40
2022-10-10T10:07:20.797Z,15.30
2022-10-10T10:10:18.652Z,15.20
2022-10-10T10:13:13.703Z,15.10
2022-10-10T10:16:05.195Z,15.00
2022-10-10T10:18:53.442Z,14.90
2022-10-10T10:21:50.262Z,14.90
2022-10-10T10:24:39.227Z,15.00
2022-10-10T10:27:28.216Z,15.10
2022-10-10T10:30:24.969Z,15.40
2022-10-10T10:33:17.618Z,15.50
2022-10-10T10:36:10.508Z,15.60
2022-10-10T10:39:03.571Z,15.70
2022-10-10T10:41:54.387Z,15.70
2022-10-10T10:44:43.324Z,15.80
2022-10-10T10:47:38.492Z,15.90
2022-10-10T10:50:36.504Z,16.10
2022-10-10T10:53:26.847Z,16.20
2022-10-10T10:56:19.329Z,16.50
2022-10-10T10:59:41.725Z,16.80
2022-10-10T11:02:55.316Z,16.90
2022-10-10T11:05:48.701Z,17.10
2022-10-10T11:08:41.287Z,17.30
2022-10-10T11:11:39.129Z,17.40
2022-10-10T11:14:37.953Z,18.30
2022-10-10T11:17:27.584Z,17.60
2022-10-10T11:20:21.725Z,17.80
2022-10-10T11:23:13.845Z,17.80
2022-10-10T11:26:03.608Z,17.80
2022-10-10T11:28:56.242Z,17.80
2022-10-10T11:31:46.026Z,18.00
2022-10-10T11:34:35.342Z,17.80
2022-10-10T11:37:27.073Z,18.00
2022-10-10T11:40:22.361Z,18.20
2022-10-10T11:43:13.418Z,18.40
2022-10-10T11:46:04.776Z,18.60
2022-10-10T11:48:56.802Z,18.50
2022-10-10T11:51:46.319Z,18.60
2022-10-10T11:54:40.141Z,18.60
2022-10-10T11:57:33.518Z,18.40
2022-10-10T12:00:21.085Z,18.40
2022-10-10T12:03:08.870Z,18.40
2022-10-10T12:05:59.683Z,18.20
2022-10-10T12:08:51.948Z,18.10
2022-10-10T12:11:41.307Z,18.10
2022-10-10T12:14:32.112Z,18.10
2022-10-10T12:17:21.099Z,18.00
2022-10-10T12:20:12.552Z,17.90
2022-10-10T12:23:11.696Z,17.80
2022-10-10T12:25:59.546Z,17.70
2022-10-10T12:29:01.965Z,17.60
2022-10-10T12:32:10.981Z,17.50
2022-10-10T12:34:59.899Z,17.70
2022-10-10T12:38:02.696Z,17.80
2022-10-10T12:41:09.447Z,17.90
2022-10-10T12:44:12.281Z,18.00
2022-10-10T12:47:18.575Z,17.90
2022-10-10T12:50:20.096Z,18.00
2022-10-10T12:53:15.760Z,18.00
2022-10-10T12:56:06.360Z,17.90
2022-10-10T12:58:54.001Z,17.80
2022-10-10T13:01:45.730Z,17.80
2022-10-10T13:04:34.163Z,18.10
2022-10-10T13:07:26.403Z,17.90
2022-10-10T13:10:21.433Z,17.90
2022-10-10T13:13:17.609Z,18.00
2022-10-10T13:16:10.339Z,18.40
2022-10-10T13:18:59.977Z,18.40
2022-10-10T13:21:48.156Z,18.40
2022-10-10T13:24:37.149Z,18.50
2022-10-10T13:27:26.186Z,18.60
2022-10-10T13:30:19.690Z,18.40
2022-10-10T13:33:14.210Z,18.40
2022-10-10T13:36:08.905Z,18.30
2022-10-10T13:38:58.168Z,18.30
2022-10-10T13:41:48.517Z,18.50
2022-10-10T13:44:48.367Z,18.40
2022-10-10T13:47:48.079Z,18.50
2022-10-10T13:50:37.474Z,18.60
2022-10-10T13:53:35.560Z,18.50
2022-10-10T13:56:26.883Z,18.40
2022-10-10T13:59:16.487Z,18.60
2022-10-10T14:02:05.466Z,18.70
2022-10-10T14:04:53.880Z,18.70
2022-10-10T14:07:48.114Z,18.50
2022-10-10T14:10:37.906Z,18.60
2022-10-10T14:13:25.830Z,18.40
2022-10-10T14:16:23.347Z,18.40
2022-10-10T14:19:16.492Z,18.40
2022-10-10T14:22:04.042Z,18.70
2022-10-10T14:24:51.766Z,18.80
2022-10-10T14:27:41.140Z,18.80
2022-10-10T14:30:29.048Z,18.80
2022-10-10T14:33:19.491Z,18.60
2022-10-10T14:36:07.948Z,18.40
2022-10-10T14:38:56.106Z,18.10
2022-10-10T14:41:44.137Z,18.00
2022-10-10T14:44:31.785Z,17.90
2022-10-10T14:47:21.245Z,17.70
2022-10-10T14:50:16.068Z,17.70
2022-10-10T14:53:04.325Z,17.50
2022-10-10T14:55:56.102Z,17.30
2022-10-10T14:58:44.664Z,17.00
2022-10-10T15:01:35.292Z,16.70
2022-10-10T15:04:22.703Z,16.80
2022-10-10T15:07:14.286Z,16.70
2022-10-10T15:10:31.988Z,16.60
2022-10-10T15:13:13.006Z,16.50
2022-10-10T15:16:00.973Z,16.80
2022-10-10T15:18:54.213Z,16.00
2022-10-10T15:21:44.334Z,16.20
2022-10-10T15:24:37.039Z,16.10
2022-10-10T15:27:25.346Z,15.90
2022-10-10T15:30:13.658Z,15.80
2022-10-10T15:33:02.454Z,15.70
2022-10-10T15:36:09.001Z,15.60
2022-10-10T15:39:00.423Z,15.50
2022-10-10T15:41:49.085Z,15.40
2022-10-10T15:44:36.825Z,15.80
2022-10-10T15:47:27.316Z,15.30
2022-10-10T15:50:15.784Z,15.30
2022-10-10T15:53:03.246Z,13.90
2022-10-10T15:55:51.081Z,15.00
2022-10-10T15:58:41.022Z,14.90
2022-10-10T16:01:29.525Z,14.90
2022-10-10T16:04:23.061Z,14.70
2022-10-10T16:07:29.832Z,14.60
2022-10-10T16:10:18.102Z,14.50
2022-10-10T16:13:05.782Z,14.40
2022-10-10T16:16:02.776Z,14.30
2022-10-10T16:18:50.980Z,14.20
2022-10-10T16:21:40.523Z,14.10
2022-10-10T16:24:28.063Z,14.00
2022-10-10T16:27:24.570Z,13.80
2022-10-10T16:30:16.581Z,13.70
2022-10-10T16:33:05.637Z,13.50
2022-10-10T16:35:53.658Z,13.60
2022-10-10T16:38:41.192Z,13.40
2022-10-10T16:41:49.752Z,13.40
2022-10-10T16:44:37.871Z,13.20
2022-10-10T16:47:25.248Z,13.30
2022-10-10T16:50:14.218Z,13.50
2022-10-10T16:53:02.458Z,13.20
2022-10-10T16:55:49.748Z,13.20
2022-10-10T16:58:38.145Z,14.50
2022-10-10T17:01:26.074Z,13.20
2022-10-10T17:04:13.788Z,13.50
2022-10-10T17:07:02.869Z,13.10
2022-10-10T17:09:50.013Z,11.60
2022-10-10T17:12:37.910Z,13.10
2022-10-10T17:15:25.521Z,13.10
2022-10-10T17:18:13.780Z,13.10
2022-10-10T17:21:01.824Z,13.00
2022-10-10T17:23:51.420Z,13.00
2022-10-10T17:26:39.487Z,13.00
2022-10-10T17:29:29.523Z,12.90
2022-10-10T17:32:17.566Z,13.00
2022-10-10T17:35:04.797Z,12.90
2022-10-10T17:37:52.768Z,12.90
2022-10-10T17:40:42.176Z,12.90
2022-10-10T17:43:29.948Z,12.90
2022-10-10T17:46:34.300Z,12.70
2022-10-10T17:49:23.601Z,12.70
2022-10-10T17:52:11.020Z,12.60
2022-10-10T17:54:58.514Z,12.60
2022-10-10T17:57:49.338Z,12.50
2022-10-10T18:00:37.081Z,12.50
2022-10-10T18:03:24.824Z,12.40
2022-10-10T18:06:13.301Z,12.40
2022-10-10T18:09:04.690Z,12.40
2022-10-10T18:11:52.504Z,12.30
2022-10-10T18:14:41.213Z,12.30
2022-10-10T18:17:29.683Z,12.20
2022-10-10T18:20:17.729Z,12.20
2022-10-10T18:23:05.249Z,12.20
2022-10-10T18:25:59.332Z,12.10
2022-10-10T18:28:47.866Z,12.10
2022-10-10T18:31:38.348Z,12.00
2022-10-10T18:34:25.873Z,11.90
2022-10-10T18:37:14.273Z,11.90
2022-10-10T18:40:01.867Z,11.90
2022-10-10T18:42:49.605Z,11.80
2022-10-10T18:45:37.366Z,11.80
2022-10-10T18:48:26.339Z,11.70
2022-10-10T18:51:14.794Z,11.70
2022-10-10T18:54:03.971Z,11.70
2022-10-10T18:56:51.658Z,11.60
2022-10-10T18:59:38.928Z,11.40
2022-10-10T19:02:26.453Z,11.50
2022-10-10T19:05:16.165Z,11.50
2022-10-10T19:08:03.683Z,11.50
2022-10-10T19:10:52.075Z,11.40
2022-10-10T19:13:39.736Z,11.40
2022-10-10T19:16:28.137Z,11.30
2022-10-10T19:19:17.301Z,11.20
2022-10-10T19:22:06.664Z,11.20
2022-10-10T19:24:55.001Z,11.10
2022-10-10T19:27:43.029Z,11.20
2022-10-10T19:30:31.387Z,11.10
2022-10-10T19:33:19.230Z,11.10
2022-10-10T19:36:09.354Z,11.10
2022-10-10T19:39:00.001Z,11.00
2022-10-10T19:41:48.438Z,11.00
2022-10-10T19:44:36.684Z,11.00
2022-10-10T19:47:24.238Z,10.90
2022-10-10T19:50:11.982Z,10.70
2022-10-10T19:53:04.191Z,10.80
2022-10-10T19:55:59.576Z,10.70
2022-10-10T19:58:47.409Z,10.60
2022-10-10T20:01:35.618Z,10.60
2022-10-10T20:04:23.163Z,10.60
2022-10-10T20:07:10.691Z,10.50
2022-10-10T20:09:58.958Z,10.40
2022-10-10T20:12:48.292Z,10.30
2022-10-10T20:15:36.037Z,10.30
2022-10-10T20:18:23.716Z,10.30
2022-10-10T20:21:16.363Z,10.20
2022-10-10T20:24:06.109Z,10.20
2022-10-10T20:26:54.910Z,10.30
2022-10-10T20:29:44.309Z,10.10
2022-10-10T20:32:32.124Z,10.10
2022-10-10T20:35:20.869Z,10.10
2022-10-10T20:38:10.866Z,10.20
2022-10-10T20:40:58.532Z,9.90
2022-10-10T20:43:46.000Z,9.80
2022-10-10T20:46:35.979Z,9.80
2022-10-10T20:49:24.353Z,9.80
2022-10-10T20:52:11.681Z,9.70
2022-10-10T20:54:59.440Z,9.60
2022-10-10T20:57:46.994Z,9.50
2022-10-10T21:00:34.585Z,9.40
2022-10-10T21:03:24.450Z,9.40
2022-10-10T21:06:13.706Z,9.40
2022-10-10T21:09:02.488Z,9.30
2022-10-10T21:11:52.774Z,9.20
2022-10-10T21:14:40.934Z,9.20
2022-10-10T21:17:29.072Z,9.20
2022-10-10T21:20:20.272Z,9.20
2022-10-10T21:23:08.173Z,9.20
2022-10-10T21:25:56.059Z,9.20
2022-10-10T21:28:44.189Z,9.20
2022-10-10T21:31:32.819Z,9.10
2022-10-10T21:34:21.005Z,9.10
2022-10-10T21:37:09.827Z,9.10
2022-10-10T21:39:57.819Z,9.00
2022-10-10T21:42:45.548Z,9.00
2022-10-10T21:45:36.692Z,9.00
2022-10-10T21:48:24.055Z,9.10
2022-10-10T21:51:12.339Z,9.00
2022-10-10T21:54:02.006Z,8.90
2022-10-10T21:56:50.200Z,8.90
2022-10-10T21:59:38.345Z,8.90
2022-10-10T22:02:26.335Z,8.90
2022-10-10T22:05:15.070Z,8.90
2022-10-10T22:08:02.975Z,8.90
2022-10-10T22:10:52.020Z,8.80
2022-10-10T22:13:40.561Z,8.80
2022-10-10T22:16:28.530Z,8.80
2022-10-10T22:19:16.312Z,8.80
2022-10-10T22:22:04.446Z,8.90
2022-10-10T22:24:52.236Z,10.10
2022-10-10T22:27:42.294Z,8.60
2022-10-10T22:30:30.512Z,8.60
2022-10-10T22:33:18.716Z,8.50
2022-10-10T22:36:07.473Z,8.10
2022-10-10T22:38:55.753Z,8.10
2022-10-10T22:41:43.787Z,8.00
2022-10-10T22:44:33.409Z,7.70
2022-10-10T22:47:21.179Z,7.60
2022-10-10T22:50:09.698Z,7.50
2022-10-10T22:52:57.737Z,7.40
2022-10-10T22:55:45.119Z,7.40
2022-10-10T22:58:33.263Z,7.40
2022-10-10T23:01:24.813Z,7.40
2022-10-10T23:04:15.287Z,7.40
2022-10-10T23:07:03.133Z,7.40
2022-10-10T23:09:51.116Z,7.50
2022-10-10T23:12:38.714Z,7.60
2022-10-10T23:15:26.884Z,7.60
2022-10-10T23:18:16.030Z,7.80
2022-10-10T23:21:04.207Z,7.80
2022-10-10T23:23:51.983Z,7.80
2022-10-10T23:26:40.067Z,7.80
2022-10-10T23:29:28.037Z,7.80
2022-10-10T23:32:15.760Z,7.80
2022-10-10T23:35:05.556Z,7.80
2022-10-10T23:37:53.547Z,7.80
2022-10-10T23:40:41.578Z,7.70
2022-10-10T23:43:29.521Z,7.70
2022-10-10T23:46:18.002Z,7.60
2022-10-10T23:49:06.269Z,7.60
2022-10-10T23:51:55.617Z,7.50
2022-10-10T23:54:43.591Z,7.40
2022-10-10T23:57:31.737Z,7.30
